createdAt,value
2023-05-22T00:00:02.986Z,18.41
2023-05-22T00:01:02.915Z,18.39
2023-05-22T00:02:02.899Z,18.38
2023-05-22T00:03:03.043Z,18.36
2023-05-22T00:04:02.949Z,18.38
2023-05-22T00:05:02.911Z,18.31
2023-05-22T00:06:02.854Z,18.28
2023-05-22T00:07:02.835Z,18.23
2023-05-22T00:08:02.872Z,18.19
2023-05-22T00:09:02.866Z,18.20
2023-05-22T00:10:02.817Z,18.19
2023-05-22T00:11:02.819Z,18.14
2023-05-22T00:12:02.798Z,18.13
2023-05-22T00:13:02.848Z,18.14
2023-05-22T00:14:02.778Z,18.14
2023-05-22T00:15:02.797Z,18.16
2023-05-22T00:16:02.717Z,18.17
2023-05-22T00:17:02.759Z,18.17
2023-05-22T00:18:02.826Z,18.19
2023-05-22T00:19:02.715Z,18.19
2023-05-22T00:20:02.715Z,18.19
2023-05-22T00:21:02.703Z,18.20
2023-05-22T00:22:02.700Z,18.19
2023-05-22T00:23:02.689Z,18.19
2023-05-22T00:24:02.683Z,18.17
2023-05-22T00:25:02.643Z,18.19
2023-05-22T00:26:02.615Z,18.19
2023-05-22T00:27:02.619Z,18.17
2023-05-22T00:28:02.636Z,18.16
2023-05-22T00:29:02.588Z,18.13
2023-05-22T00:30:02.606Z,18.11
2023-05-22T00:31:02.558Z,18.11
2023-05-22T00:32:02.550Z,18.09
2023-05-22T00:33:02.636Z,18.09
2023-05-22T00:34:02.590Z,18.09
2023-05-22T00:35:02.530Z,18.07
2023-05-22T00:36:02.531Z,18.09
2023-05-22T00:37:02.549Z,18.09
2023-05-22T00:38:02.533Z,18.09
2023-05-22T00:39:02.465Z,18.05
2023-05-22T00:40:02.511Z,18.05
2023-05-22T00:41:02.477Z,18.07
2023-05-22T00:42:02.457Z,18.02
2023-05-22T00:43:02.463Z,18.01
2023-05-22T00:44:02.536Z,17.99
2023-05-22T00:45:02.421Z,17.98
2023-05-22T00:46:02.470Z,17.99
2023-05-22T00:47:02.520Z,17.99
2023-05-22T00:48:02.492Z,18.02
2023-05-22T00:49:02.391Z,17.99
2023-05-22T00:50:02.389Z,17.99
2023-05-22T00:51:02.394Z,18.02
2023-05-22T00:52:02.394Z,18.04
2023-05-22T00:53:02.342Z,18.04
2023-05-22T00:54:02.335Z,18.04
2023-05-22T00:55:02.302Z,18.05
2023-05-22T00:56:02.321Z,18.07
2023-05-22T00:57:02.279Z,18.05
2023-05-22T00:58:02.331Z,18.09
2023-05-22T00:59:02.276Z,18.09
2023-05-22T01:00:02.258Z,18.09
2023-05-22T01:01:02.254Z,18.10
2023-05-22T01:02:02.252Z,18.10
2023-05-22T01:03:02.306Z,18.10
2023-05-22T01:04:02.367Z,18.05
2023-05-22T01:05:02.195Z,18.05
2023-05-22T01:06:07.283Z,18.05
2023-05-22T01:07:02.168Z,18.07
2023-05-22T01:08:02.594Z,18.07
2023-05-22T01:09:02.163Z,18.07
2023-05-22T01:10:02.165Z,18.07
2023-05-22T01:11:02.149Z,18.07
2023-05-22T01:12:02.142Z,18.07
2023-05-22T01:13:02.117Z,18.09
2023-05-22T01:14:02.164Z,18.05
2023-05-22T01:15:02.105Z,18.04
2023-05-22T01:16:02.161Z,18.04
2023-05-22T01:17:02.079Z,18.04
2023-05-22T01:18:02.172Z,18.04
2023-05-22T01:19:02.084Z,18.04
2023-05-22T01:20:02.119Z,18.02
2023-05-22T01:21:02.061Z,17.99
2023-05-22T01:22:02.054Z,17.98
2023-05-22T01:23:01.995Z,17.99
2023-05-22T01:24:01.989Z,17.98
2023-05-22T01:25:02.008Z,17.95
2023-05-22T01:26:02.016Z,17.95
2023-05-22T01:27:02.000Z,17.92
2023-05-22T01:28:01.942Z,17.92
2023-05-22T01:29:01.946Z,17.92
2023-05-22T01:30:01.917Z,17.92
2023-05-22T01:31:01.937Z,17.87
2023-05-22T01:32:01.894Z,17.87
2023-05-22T01:33:01.986Z,17.87
2023-05-22T01:34:01.988Z,17.87
2023-05-22T01:35:01.896Z,17.86
2023-05-22T01:36:01.901Z,17.83
2023-05-22T01:37:01.861Z,17.81
2023-05-22T01:38:01.867Z,17.80
2023-05-22T01:39:01.841Z,17.80
2023-05-22T01:40:02.792Z,17.77
2023-05-22T01:41:01.869Z,17.71
2023-05-22T01:42:01.769Z,17.70
2023-05-22T01:43:01.833Z,17.66
2023-05-22T01:44:01.807Z,17.66
2023-05-22T01:45:01.788Z,17.60
2023-05-22T01:46:01.809Z,17.60
2023-05-22T01:47:01.775Z,17.58
2023-05-22T01:48:01.767Z,17.57
2023-05-22T01:49:01.780Z,17.60
2023-05-22T01:50:01.712Z,17.60
2023-05-22T01:51:01.711Z,17.58
2023-05-22T01:52:01.676Z,17.60
2023-05-22T01:53:01.693Z,17.57
2023-05-22T01:54:01.696Z,17.58
2023-05-22T01:55:01.683Z,17.57
2023-05-22T01:56:01.649Z,17.57
2023-05-22T01:57:01.671Z,17.55
2023-05-22T01:58:01.622Z,17.53
2023-05-22T01:59:01.625Z,17.53
2023-05-22T02:00:01.572Z,17.49
2023-05-22T02:01:01.662Z,17.47
2023-05-22T02:02:01.583Z,17.46
2023-05-22T02:03:01.672Z,17.45
2023-05-22T02:04:01.554Z,17.45
2023-05-22T02:05:01.514Z,17.43
2023-05-22T02:06:01.561Z,17.43
2023-05-22T02:07:01.637Z,17.40
2023-05-22T02:08:01.481Z,17.38
2023-05-22T02:09:01.525Z,17.38
2023-05-22T02:10:01.481Z,17.36
2023-05-22T02:11:01.516Z,17.36
2023-05-22T02:12:01.735Z,17.36
2023-05-22T02:13:01.442Z,17.36
2023-05-22T02:14:01.396Z,17.36
2023-05-22T02:15:01.456Z,17.38
2023-05-22T02:16:01.440Z,17.39
2023-05-22T02:17:01.434Z,17.39
2023-05-22T02:18:01.548Z,17.39
2023-05-22T02:19:01.380Z,17.38
2023-05-22T02:20:01.369Z,17.36
2023-05-22T02:21:01.375Z,17.36
2023-05-22T02:22:01.350Z,17.38
2023-05-22T02:23:01.343Z,17.36
2023-05-22T02:24:01.414Z,17.35
2023-05-22T02:25:01.328Z,17.35
2023-05-22T02:26:01.360Z,17.30
2023-05-22T02:27:01.410Z,17.30
2023-05-22T02:28:01.280Z,17.28
2023-05-22T02:29:01.249Z,17.27
2023-05-22T02:30:01.255Z,17.25
2023-05-22T02:31:01.344Z,17.21
2023-05-22T02:32:01.276Z,17.20
2023-05-22T02:33:01.295Z,17.18
2023-05-22T02:34:01.212Z,17.15
2023-05-22T02:35:01.253Z,17.15
2023-05-22T02:36:01.241Z,17.14
2023-05-22T02:37:01.219Z,17.14
2023-05-22T02:38:01.272Z,17.12
2023-05-22T02:39:01.176Z,17.10
2023-05-22T02:40:01.128Z,17.07
2023-05-22T02:41:01.167Z,17.05
2023-05-22T02:42:01.135Z,17.03
2023-05-22T02:43:01.103Z,17.00
2023-05-22T02:44:01.090Z,16.99
2023-05-22T02:45:01.162Z,17.00
2023-05-22T02:46:01.336Z,17.00
2023-05-22T02:47:01.209Z,16.98
2023-05-22T02:48:01.121Z,16.99
2023-05-22T02:49:01.061Z,16.98
2023-05-22T02:50:01.058Z,16.96
2023-05-22T02:51:01.035Z,16.98
2023-05-22T02:52:01.005Z,16.95
2023-05-22T02:53:01.017Z,16.95
2023-05-22T02:54:00.967Z,16.91
2023-05-22T02:55:00.982Z,16.91
2023-05-22T02:56:00.949Z,16.91
2023-05-22T02:57:01.005Z,16.92
2023-05-22T02:58:00.984Z,16.91
2023-05-22T02:59:00.931Z,16.88
2023-05-22T03:00:00.925Z,16.88
2023-05-22T03:01:00.920Z,16.88
2023-05-22T03:02:00.981Z,16.85
2023-05-22T03:03:01.018Z,16.85
2023-05-22T03:04:00.966Z,16.87
2023-05-22T03:05:00.884Z,16.84
2023-05-22T03:06:00.840Z,16.84
2023-05-22T03:07:00.983Z,16.82
2023-05-22T03:08:00.822Z,16.82
2023-05-22T03:09:00.847Z,16.81
2023-05-22T03:10:00.814Z,16.81
2023-05-22T03:11:00.854Z,16.80
2023-05-22T03:12:00.780Z,16.80
2023-05-22T03:13:00.814Z,16.78
2023-05-22T03:14:00.785Z,16.80
2023-05-22T03:15:01.058Z,16.80
2023-05-22T03:16:00.744Z,16.80
2023-05-22T03:17:00.753Z,16.80
2023-05-22T03:18:00.769Z,16.78
2023-05-22T03:19:00.721Z,16.77
2023-05-22T03:20:00.676Z,16.75
2023-05-22T03:21:00.712Z,16.77
2023-05-22T03:22:00.666Z,16.75
2023-05-22T03:23:00.677Z,16.75
2023-05-22T03:24:00.681Z,16.72
2023-05-22T03:25:00.648Z,16.72
2023-05-22T03:26:00.615Z,16.72
2023-05-22T03:27:00.661Z,16.72
2023-05-22T03:28:00.650Z,16.72
2023-05-22T03:29:00.650Z,16.72
2023-05-22T03:30:00.590Z,16.70
2023-05-22T03:31:00.589Z,16.72
2023-05-22T03:32:00.619Z,16.69
2023-05-22T03:33:00.630Z,16.69
2023-05-22T03:34:00.651Z,16.66
2023-05-22T03:35:00.539Z,16.67
2023-05-22T03:36:00.557Z,16.66
2023-05-22T03:37:00.552Z,16.65
2023-05-22T03:38:00.611Z,16.65
2023-05-22T03:39:00.486Z,16.65
2023-05-22T03:40:00.494Z,16.63
2023-05-22T03:41:00.477Z,16.63
2023-05-22T03:42:00.472Z,16.62
2023-05-22T03:43:00.498Z,16.60
2023-05-22T03:44:00.456Z,16.57
2023-05-22T03:45:00.500Z,16.54
2023-05-22T03:46:00.473Z,16.51
2023-05-22T03:47:00.429Z,16.51
2023-05-22T03:48:00.416Z,16.51
2023-05-22T03:49:01.367Z,16.51
2023-05-22T03:50:00.433Z,16.48
2023-05-22T03:51:00.352Z,16.51
2023-05-22T03:52:00.390Z,16.52
2023-05-22T03:53:00.336Z,16.52
2023-05-22T03:54:00.336Z,16.51
2023-05-22T03:55:00.316Z,16.52
2023-05-22T03:56:00.298Z,16.51
2023-05-22T03:57:00.294Z,16.51
2023-05-22T03:58:00.245Z,16.51
2023-05-22T03:59:00.232Z,16.51
2023-05-22T04:00:00.242Z,16.50
2023-05-22T04:01:00.239Z,16.48
2023-05-22T04:02:00.256Z,16.47
2023-05-22T04:03:00.275Z,16.45
2023-05-22T04:04:00.183Z,16.47
2023-05-22T04:05:00.224Z,16.47
2023-05-22T04:06:00.186Z,16.45
2023-05-22T04:07:00.169Z,16.44
2023-05-22T04:08:00.194Z,16.44
2023-05-22T04:09:00.127Z,16.44
2023-05-22T04:10:00.167Z,16.41
2023-05-22T04:11:00.115Z,16.42
2023-05-22T04:12:00.114Z,16.44
2023-05-22T04:13:00.136Z,16.44
2023-05-22T04:14:00.094Z,16.44
2023-05-22T04:15:00.055Z,16.45
2023-05-22T04:16:00.069Z,16.44
2023-05-22T04:17:00.044Z,16.44
2023-05-22T04:18:00.082Z,16.47
2023-05-22T04:19:00.025Z,16.48
2023-05-22T04:20:00.006Z,16.48
2023-05-22T04:20:59.990Z,16.50
2023-05-22T04:21:59.990Z,16.52
2023-05-22T04:22:59.989Z,16.52
2023-05-22T04:23:59.960Z,16.55
2023-05-22T04:24:59.948Z,16.57
2023-05-22T04:25:59.933Z,16.57
2023-05-22T04:26:59.938Z,16.59
2023-05-22T04:27:59.933Z,16.62
2023-05-22T04:28:59.913Z,16.62
2023-05-22T04:29:59.912Z,16.62
2023-05-22T04:30:59.945Z,16.60
2023-05-22T04:31:59.869Z,16.60
2023-05-22T04:32:59.923Z,16.60
2023-05-22T04:33:59.855Z,16.65
2023-05-22T04:34:59.836Z,16.60
2023-05-22T04:35:59.824Z,16.63
2023-05-22T04:36:59.802Z,16.65
2023-05-22T04:37:59.808Z,16.67
2023-05-22T04:38:59.854Z,16.66
2023-05-22T04:39:59.779Z,16.67
2023-05-22T04:40:59.765Z,16.70
2023-05-22T04:41:59.763Z,16.70
2023-05-22T04:42:59.784Z,16.70
2023-05-22T04:43:59.748Z,16.75
2023-05-22T04:44:59.739Z,16.77
2023-05-22T04:45:59.743Z,16.78
2023-05-22T04:46:59.821Z,16.80
2023-05-22T04:47:59.800Z,16.81
2023-05-22T04:48:59.675Z,16.82
2023-05-22T04:49:59.853Z,16.81
2023-05-22T04:50:59.689Z,16.82
2023-05-22T04:51:59.681Z,16.85
2023-05-22T04:52:59.635Z,16.84
2023-05-22T04:53:59.624Z,16.82
2023-05-22T04:55:01.164Z,16.84
2023-05-22T04:55:59.636Z,16.85
2023-05-22T04:56:59.590Z,16.87
2023-05-22T04:57:59.585Z,16.88
2023-05-22T04:58:59.566Z,16.91
2023-05-22T04:59:59.564Z,16.91
2023-05-22T05:00:59.593Z,16.92
2023-05-22T05:01:59.537Z,16.91
2023-05-22T05:02:59.598Z,16.95
2023-05-22T05:03:59.561Z,16.96
2023-05-22T05:04:59.497Z,16.95
2023-05-22T05:05:59.513Z,16.96
2023-05-22T05:06:59.476Z,16.96
2023-05-22T05:07:59.478Z,16.99
2023-05-22T05:08:59.450Z,17.00
2023-05-22T05:09:59.559Z,17.00
2023-05-22T05:10:59.454Z,17.03
2023-05-22T05:11:59.450Z,17.05
2023-05-22T05:12:59.452Z,17.07
2023-05-22T05:13:59.403Z,17.12
2023-05-22T05:14:59.446Z,17.14
2023-05-22T05:15:59.404Z,17.18
2023-05-22T05:16:59.486Z,17.20
2023-05-22T05:17:59.378Z,17.22
2023-05-22T05:18:59.382Z,17.27
2023-05-22T05:19:59.335Z,17.27
2023-05-22T05:20:59.339Z,17.30
2023-05-22T05:21:59.339Z,17.30
2023-05-22T05:22:59.292Z,17.33
2023-05-22T05:23:59.296Z,17.35
2023-05-22T05:24:59.269Z,17.40
2023-05-22T05:25:59.292Z,17.45
2023-05-22T05:26:59.248Z,17.47
2023-05-22T05:27:59.246Z,17.51
2023-05-22T05:28:59.224Z,17.55
2023-05-22T05:29:59.228Z,17.58
2023-05-22T05:30:59.226Z,17.62
2023-05-22T05:31:59.212Z,17.65
2023-05-22T05:32:59.322Z,17.70
2023-05-22T05:33:59.173Z,17.74
2023-05-22T05:34:59.162Z,17.81
2023-05-22T05:35:59.179Z,17.84
2023-05-22T05:36:59.134Z,17.91
2023-05-22T05:37:59.135Z,17.98
2023-05-22T05:38:59.121Z,18.01
2023-05-22T05:39:59.107Z,18.05
2023-05-22T05:40:59.132Z,18.07
2023-05-22T05:41:59.085Z,18.14
2023-05-22T05:42:59.099Z,18.25
2023-05-22T05:43:59.123Z,18.34
2023-05-22T05:44:59.071Z,18.38
2023-05-22T05:45:59.092Z,18.44
2023-05-22T05:46:59.057Z,18.50
2023-05-22T05:47:59.085Z,18.54
2023-05-22T05:48:59.012Z,18.56
2023-05-22T05:49:59.032Z,18.56
2023-05-22T05:50:59.020Z,18.53
2023-05-22T05:51:59.062Z,18.54
2023-05-22T05:52:58.961Z,18.59
2023-05-22T05:53:59.012Z,18.65
2023-05-22T05:54:58.946Z,18.64
2023-05-22T05:55:58.932Z,18.65
2023-05-22T05:56:59.046Z,18.72
2023-05-22T05:57:58.910Z,18.79
2023-05-22T05:58:58.896Z,18.90
2023-05-22T05:59:58.893Z,18.93
2023-05-22T06:00:58.878Z,18.94
2023-05-22T06:01:58.891Z,18.99
2023-05-22T06:02:58.941Z,19.05
2023-05-22T06:03:58.933Z,19.06
2023-05-22T06:04:58.829Z,19.07
2023-05-22T06:05:58.921Z,19.06
2023-05-22T06:06:58.836Z,19.07
2023-05-22T06:07:58.801Z,19.12
2023-05-22T06:08:58.778Z,19.13
2023-05-22T06:09:58.774Z,19.15
2023-05-22T06:10:58.797Z,19.20
2023-05-22T06:11:58.780Z,19.27
2023-05-22T06:12:58.743Z,19.30
2023-05-22T06:13:58.750Z,19.35
2023-05-22T06:14:58.724Z,19.45
2023-05-22T06:16:01.700Z,19.50
2023-05-22T06:16:58.733Z,19.50
2023-05-22T06:17:58.732Z,19.57
2023-05-22T06:18:58.739Z,19.64
2023-05-22T06:19:58.670Z,19.65
2023-05-22T06:20:58.653Z,19.67
2023-05-22T06:21:58.684Z,19.65
2023-05-22T06:22:58.632Z,19.64
2023-05-22T06:23:58.631Z,19.65
2023-05-22T06:24:58.612Z,19.70
2023-05-22T06:25:58.605Z,19.71
2023-05-22T06:26:58.693Z,19.78
2023-05-22T06:27:58.581Z,19.78
2023-05-22T06:28:58.565Z,19.79
2023-05-22T06:29:58.562Z,19.75
2023-05-22T06:30:58.544Z,19.71
2023-05-22T06:31:58.585Z,19.72
2023-05-22T06:32:58.705Z,19.72
2023-05-22T06:33:58.604Z,19.70
2023-05-22T06:34:58.511Z,19.70
2023-05-22T06:35:58.502Z,19.68
2023-05-22T06:36:58.507Z,19.68
2023-05-22T06:37:58.480Z,19.68
2023-05-22T06:38:58.466Z,19.67
2023-05-22T06:39:58.454Z,19.67
2023-05-22T06:40:58.505Z,19.64
2023-05-22T06:41:58.457Z,19.60
2023-05-22T06:42:58.424Z,19.60
2023-05-22T06:43:58.413Z,19.62
2023-05-22T06:44:58.392Z,19.62
2023-05-22T06:45:58.434Z,19.65
2023-05-22T06:46:58.398Z,19.70
2023-05-22T06:47:58.410Z,19.68
2023-05-22T06:48:58.348Z,19.71
2023-05-22T06:49:58.370Z,19.78
2023-05-22T06:50:58.334Z,19.83
2023-05-22T06:51:58.347Z,19.85
2023-05-22T06:52:58.303Z,19.86
2023-05-22T06:53:58.297Z,19.87
2023-05-22T06:54:58.280Z,19.87
2023-05-22T06:55:58.287Z,19.87
2023-05-22T06:56:58.281Z,19.94
2023-05-22T06:57:58.255Z,20.01
2023-05-22T06:58:58.237Z,20.05
2023-05-22T06:59:58.238Z,20.04
2023-05-22T07:00:58.305Z,20.10
2023-05-22T07:01:58.230Z,20.17
2023-05-22T07:02:58.243Z,20.25
2023-05-22T07:03:58.184Z,20.22
2023-05-22T07:04:58.178Z,20.13
2023-05-22T07:05:58.287Z,20.12
2023-05-22T07:06:58.183Z,20.16
2023-05-22T07:07:58.142Z,20.23
2023-05-22T07:08:58.144Z,20.33
2023-05-22T07:09:58.137Z,20.41
2023-05-22T07:10:58.106Z,20.42
2023-05-22T07:11:58.121Z,20.42
2023-05-22T07:12:58.090Z,20.40
2023-05-22T07:13:58.079Z,20.41
2023-05-22T07:14:58.060Z,20.50
2023-05-22T07:15:58.131Z,20.56
2023-05-22T07:16:58.084Z,20.64
2023-05-22T07:17:58.076Z,20.71
2023-05-22T07:18:58.055Z,20.75
2023-05-22T07:19:58.017Z,20.75
2023-05-22T07:20:57.993Z,20.78
2023-05-22T07:21:58.005Z,20.75
2023-05-22T07:22:58.036Z,20.78
2023-05-22T07:23:57.964Z,20.72
2023-05-22T07:24:57.948Z,20.73
2023-05-22T07:25:57.950Z,20.78
2023-05-22T07:26:57.944Z,20.81
2023-05-22T07:27:57.913Z,20.78
2023-05-22T07:28:57.901Z,20.78
2023-05-22T07:29:57.894Z,20.85
2023-05-22T07:30:57.876Z,20.93
2023-05-22T07:31:58.015Z,21.00
2023-05-22T07:32:57.875Z,21.06
2023-05-22T07:33:57.845Z,21.08
2023-05-22T07:34:57.826Z,21.16
2023-05-22T07:35:57.830Z,21.28
2023-05-22T07:36:57.838Z,21.37
2023-05-22T07:37:57.805Z,21.48
2023-05-22T07:38:57.784Z,21.56
2023-05-22T07:39:57.770Z,21.66
2023-05-22T07:40:57.770Z,21.75
2023-05-22T07:41:59.398Z,21.90
2023-05-22T07:42:57.772Z,22.01
2023-05-22T07:43:57.721Z,22.05
2023-05-22T07:44:57.740Z,22.15
2023-05-22T07:45:57.776Z,22.20
2023-05-22T07:46:57.730Z,22.30
2023-05-22T07:47:57.718Z,22.27
2023-05-22T07:48:57.784Z,22.12
2023-05-22T07:49:57.741Z,22.27
2023-05-22T07:50:57.659Z,22.46
2023-05-22T07:51:57.651Z,22.66
2023-05-22T07:52:57.633Z,22.82
2023-05-22T07:54:57.607Z,22.99
2023-05-22T07:55:57.585Z,22.89
2023-05-22T07:56:57.626Z,22.85
2023-05-22T07:57:57.586Z,22.70
2023-05-22T07:58:57.559Z,22.57
2023-05-22T07:59:57.560Z,22.41
2023-05-22T08:00:57.538Z,22.41
2023-05-22T08:01:58.516Z,22.41
2023-05-22T08:02:57.619Z,22.51
2023-05-22T08:03:57.641Z,22.59
2023-05-22T08:04:57.511Z,22.64
2023-05-22T08:05:57.557Z,22.72
2023-05-22T08:06:57.502Z,22.81
2023-05-22T08:07:57.480Z,22.89
2023-05-22T08:08:57.454Z,22.94
2023-05-22T08:09:57.437Z,23.01
2023-05-22T08:11:04.197Z,23.16
2023-05-22T08:11:57.437Z,23.21
2023-05-22T08:12:57.410Z,23.19
2023-05-22T08:13:57.387Z,23.26
2023-05-22T08:14:57.384Z,23.32
2023-05-22T08:16:00.691Z,23.41
2023-05-22T08:16:57.401Z,23.45
2023-05-22T08:17:57.391Z,23.59
2023-05-22T08:18:57.374Z,23.74
2023-05-22T08:19:57.387Z,23.90
2023-05-22T08:20:57.313Z,23.94
2023-05-22T08:21:57.319Z,24.00
2023-05-22T08:22:57.298Z,24.11
2023-05-22T08:23:57.290Z,24.18
2023-05-22T08:24:57.288Z,24.24
2023-05-22T08:25:57.257Z,24.30
2023-05-22T08:26:57.299Z,24.33
2023-05-22T08:27:57.242Z,24.06
2023-05-22T08:28:57.226Z,23.96
2023-05-22T08:29:57.211Z,24.04
2023-05-22T08:30:57.209Z,24.14
2023-05-22T08:31:57.292Z,24.21
2023-05-22T08:32:57.283Z,24.39
2023-05-22T08:33:57.178Z,24.53
2023-05-22T08:34:57.165Z,24.71
2023-05-22T08:35:57.151Z,24.89
2023-05-22T08:36:57.173Z,24.97
2023-05-22T08:37:57.132Z,25.02
2023-05-22T08:38:57.133Z,24.92
2023-05-22T08:39:57.120Z,25.01
2023-05-22T08:40:57.107Z,25.11
2023-05-22T08:41:57.126Z,24.98
2023-05-22T08:42:57.086Z,24.98
2023-05-22T08:43:57.077Z,25.01
2023-05-22T08:44:57.062Z,25.02
2023-05-22T08:45:57.052Z,25.01
2023-05-22T08:46:57.060Z,24.92
2023-05-22T08:47:57.113Z,24.86
2023-05-22T08:48:57.032Z,24.79
2023-05-22T08:49:57.025Z,24.80
2023-05-22T08:50:57.000Z,24.80
2023-05-22T08:51:56.983Z,24.66
2023-05-22T08:52:57.004Z,24.56
2023-05-22T08:53:56.982Z,24.53
2023-05-22T08:54:56.970Z,24.61
2023-05-22T08:55:56.948Z,24.71
2023-05-22T08:56:57.616Z,24.74
2023-05-22T08:57:56.965Z,24.70
2023-05-22T08:58:56.929Z,24.80
2023-05-22T08:59:56.903Z,24.55
2023-05-22T09:00:56.922Z,24.60
2023-05-22T09:01:56.886Z,24.66
2023-05-22T09:02:56.954Z,24.83
2023-05-22T09:03:56.900Z,25.01
2023-05-22T09:04:56.859Z,25.12
2023-05-22T09:05:56.837Z,25.27
2023-05-22T09:06:56.862Z,25.49
2023-05-22T09:08:02.529Z,25.51
2023-05-22T09:08:56.822Z,25.59
2023-05-22T09:09:56.879Z,25.66
2023-05-22T09:10:56.806Z,25.78
2023-05-22T09:11:56.775Z,25.93
2023-05-22T09:12:56.793Z,25.89
2023-05-22T09:13:56.757Z,25.85
2023-05-22T09:14:56.744Z,25.79
2023-05-22T09:15:56.732Z,25.67
2023-05-22T09:16:56.758Z,25.59
2023-05-22T09:17:56.812Z,25.60
2023-05-22T09:18:56.770Z,25.75
2023-05-22T09:19:56.684Z,25.79
2023-05-22T09:20:56.685Z,25.72
2023-05-22T09:21:56.670Z,25.85
2023-05-22T09:22:56.706Z,25.91
2023-05-22T09:23:56.648Z,26.08
2023-05-22T09:24:56.635Z,26.16
2023-05-22T09:25:56.632Z,26.23
2023-05-22T09:26:56.613Z,26.29
2023-05-22T09:27:56.623Z,25.97
2023-05-22T09:28:56.595Z,25.69
2023-05-22T09:29:56.587Z,25.71
2023-05-22T09:30:56.603Z,25.79
2023-05-22T09:31:56.687Z,25.86
2023-05-22T09:32:56.648Z,25.98
2023-05-22T09:33:56.530Z,26.11
2023-05-22T09:34:56.523Z,26.19
2023-05-22T09:35:56.511Z,26.21
2023-05-22T09:36:56.493Z,26.03
2023-05-22T09:37:56.515Z,25.83
2023-05-22T09:38:56.476Z,25.75
2023-05-22T09:39:56.481Z,25.85
2023-05-22T09:40:56.451Z,26.00
2023-05-22T09:41:56.441Z,26.13
2023-05-22T09:42:56.461Z,26.20
2023-05-22T09:43:56.421Z,26.32
2023-05-22T09:44:56.416Z,26.38
2023-05-22T09:45:56.433Z,26.24
2023-05-22T09:46:56.387Z,25.96
2023-05-22T09:47:56.449Z,25.85
2023-05-22T09:48:56.375Z,25.93
2023-05-22T09:49:56.349Z,25.96
2023-05-22T09:50:56.386Z,26.11
2023-05-22T09:51:56.350Z,26.24
2023-05-22T09:52:56.352Z,26.35
2023-05-22T09:53:56.309Z,26.31
2023-05-22T09:54:56.305Z,26.09
2023-05-22T09:55:56.298Z,26.03
2023-05-22T09:56:56.290Z,26.16
2023-05-22T09:57:56.303Z,26.09
2023-05-22T09:58:56.269Z,26.08
2023-05-22T09:59:56.260Z,26.17
2023-05-22T10:00:56.251Z,26.17
2023-05-22T10:01:56.250Z,26.08
2023-05-22T10:02:56.282Z,26.06
2023-05-22T10:03:56.206Z,26.08
2023-05-22T10:04:56.228Z,25.98
2023-05-22T10:05:56.198Z,26.03
2023-05-22T10:06:56.212Z,26.20
2023-05-22T10:07:56.166Z,26.28
2023-05-22T10:08:56.156Z,26.31
2023-05-22T10:09:56.152Z,26.49
2023-05-22T10:10:56.184Z,26.28
2023-05-22T10:11:56.177Z,26.12
2023-05-22T10:12:56.134Z,26.08
2023-05-22T10:13:56.099Z,26.03
2023-05-22T10:14:56.094Z,26.20
2023-05-22T10:15:56.120Z,26.39
2023-05-22T10:16:56.080Z,26.50
2023-05-22T10:17:56.111Z,26.44
2023-05-22T10:18:56.083Z,26.46
2023-05-22T10:19:56.036Z,26.61
2023-05-22T10:20:56.025Z,26.66
2023-05-22T10:21:56.011Z,26.81
2023-05-22T10:22:56.025Z,26.91
2023-05-22T10:23:56.001Z,27.11
2023-05-22T10:24:55.985Z,27.23
2023-05-22T10:25:55.982Z,27.35
2023-05-22T10:26:55.954Z,27.38
2023-05-22T10:27:55.958Z,27.16
2023-05-22T10:28:55.928Z,27.06
2023-05-22T10:29:55.914Z,26.97
2023-05-22T10:30:55.915Z,26.98
2023-05-22T10:31:55.895Z,27.12
2023-05-22T10:32:55.968Z,27.30
2023-05-22T10:33:55.882Z,27.42
2023-05-22T10:34:55.875Z,27.62
2023-05-22T10:35:55.852Z,27.72
2023-05-22T10:37:00.395Z,27.74
2023-05-22T10:37:55.849Z,27.81
2023-05-22T10:38:55.854Z,27.91
2023-05-22T10:39:55.798Z,27.72
2023-05-22T10:40:55.808Z,27.65
2023-05-22T10:41:55.807Z,27.61
2023-05-22T10:42:55.802Z,27.63
2023-05-22T10:43:55.758Z,27.48
2023-05-22T10:44:55.763Z,27.55
2023-05-22T10:45:55.754Z,27.62
2023-05-22T10:46:55.734Z,27.50
2023-05-22T10:47:55.744Z,27.59
2023-05-22T10:48:55.708Z,27.71
2023-05-22T10:49:55.718Z,27.69
2023-05-22T10:50:56.042Z,27.69
2023-05-22T10:51:55.670Z,27.88
2023-05-22T10:52:55.683Z,28.06
2023-05-22T10:53:55.654Z,28.24
2023-05-22T10:54:55.650Z,28.28
2023-05-22T10:55:55.635Z,28.32
2023-05-22T10:56:55.624Z,28.33
2023-05-22T10:57:55.632Z,28.40
2023-05-22T10:58:55.616Z,28.48
2023-05-22T10:59:55.598Z,28.60
2023-05-22T11:00:55.579Z,28.77
2023-05-22T11:01:55.611Z,28.87
2023-05-22T11:02:58.658Z,28.82
2023-05-22T11:03:55.543Z,28.76
2023-05-22T11:04:55.581Z,28.73
2023-05-22T11:05:55.526Z,28.76
2023-05-22T11:06:55.521Z,28.62
2023-05-22T11:07:55.525Z,28.69
2023-05-22T11:08:55.517Z,28.79
2023-05-22T11:09:55.480Z,28.85
2023-05-22T11:10:55.475Z,28.92
2023-05-22T11:11:55.463Z,28.91
2023-05-22T11:12:55.471Z,29.03
2023-05-22T11:13:55.440Z,29.11
2023-05-22T11:14:55.510Z,29.15
2023-05-22T11:15:55.421Z,29.05
2023-05-22T11:16:55.500Z,29.00
2023-05-22T11:17:55.489Z,29.07
2023-05-22T11:18:55.470Z,28.95
2023-05-22T11:19:55.426Z,28.89
2023-05-22T11:20:55.385Z,28.72
2023-05-22T11:21:55.355Z,28.21
2023-05-22T11:22:55.372Z,28.13
2023-05-22T11:23:55.328Z,28.30
2023-05-22T11:24:55.327Z,28.51
2023-05-22T11:25:55.309Z,28.52
2023-05-22T11:26:55.308Z,28.57
2023-05-22T11:27:55.328Z,28.38
2023-05-22T11:28:55.288Z,28.58
2023-05-22T11:29:55.270Z,28.69
2023-05-22T11:30:55.317Z,28.55
2023-05-22T11:31:55.249Z,28.52
2023-05-22T11:32:55.322Z,28.58
2023-05-22T11:33:55.255Z,28.67
2023-05-22T11:34:55.286Z,28.77
2023-05-22T11:35:55.220Z,28.89
2023-05-22T11:36:55.200Z,28.94
2023-05-22T11:37:55.207Z,29.03
2023-05-22T11:38:55.197Z,29.18
2023-05-22T11:39:55.172Z,29.20
2023-05-22T11:40:55.175Z,29.02
2023-05-22T11:41:55.159Z,29.03
2023-05-22T11:42:55.158Z,29.08
2023-05-22T11:43:55.122Z,28.89
2023-05-22T11:44:55.112Z,28.72
2023-05-22T11:45:55.129Z,28.57
2023-05-22T11:46:55.106Z,28.54
2023-05-22T11:47:55.117Z,28.55
2023-05-22T11:48:55.071Z,28.58
2023-05-22T11:49:55.050Z,28.57
2023-05-22T11:50:55.056Z,28.48
2023-05-22T11:51:55.037Z,28.60
2023-05-22T11:52:55.050Z,28.85
2023-05-22T11:53:55.013Z,29.10
2023-05-22T11:54:55.003Z,29.27
2023-05-22T11:55:54.996Z,29.44
2023-05-22T11:56:54.981Z,29.37
2023-05-22T11:57:54.996Z,29.35
2023-05-22T11:58:54.959Z,29.47
2023-05-22T11:59:55.027Z,29.54
2023-05-22T12:00:55.117Z,29.63
2023-05-22T12:01:54.937Z,29.82
2023-05-22T12:02:55.057Z,29.82
2023-05-22T12:03:55.105Z,29.99
2023-05-22T12:04:54.885Z,30.10
2023-05-22T12:05:54.895Z,30.00
2023-05-22T12:06:55.057Z,29.64
2023-05-22T12:07:54.897Z,29.41
2023-05-22T12:08:54.849Z,29.37
2023-05-22T12:09:54.846Z,29.36
2023-05-22T12:10:54.829Z,28.88
2023-05-22T12:11:54.828Z,28.85
2023-05-22T12:12:54.821Z,28.70
2023-05-22T12:13:54.787Z,28.67
2023-05-22T12:14:54.773Z,28.73
2023-05-22T12:15:54.772Z,28.79
2023-05-22T12:16:54.844Z,28.80
2023-05-22T12:17:54.798Z,28.85
2023-05-22T12:18:54.775Z,29.10
2023-05-22T12:19:54.732Z,29.17
2023-05-22T12:20:54.716Z,29.29
2023-05-22T12:21:54.704Z,29.29
2023-05-22T12:22:54.716Z,29.41
2023-05-22T12:23:54.680Z,29.49
2023-05-22T12:24:54.680Z,29.37
2023-05-22T12:25:54.657Z,29.17
2023-05-22T12:26:54.645Z,29.10
2023-05-22T12:27:54.662Z,29.03
2023-05-22T12:28:54.631Z,29.10
2023-05-22T12:29:54.628Z,29.20
2023-05-22T12:30:54.626Z,29.18
2023-05-22T12:31:54.632Z,29.47
2023-05-22T12:32:54.683Z,29.69
2023-05-22T12:33:54.574Z,29.86
2023-05-22T12:34:54.559Z,29.82
2023-05-22T12:35:54.561Z,29.69
2023-05-22T12:36:54.557Z,29.78
2023-05-22T12:37:54.556Z,29.66
2023-05-22T12:38:54.527Z,29.79
2023-05-22T12:39:54.529Z,29.89
2023-05-22T12:40:54.505Z,30.04
2023-05-22T12:41:54.497Z,30.06
2023-05-22T12:42:54.505Z,29.88
2023-05-22T12:43:54.473Z,29.73
2023-05-22T12:44:54.452Z,29.85
2023-05-22T12:45:54.483Z,29.92
2023-05-22T12:46:54.474Z,29.99
2023-05-22T12:47:54.469Z,30.06
2023-05-22T12:48:54.408Z,30.08
2023-05-22T12:49:54.429Z,30.16
2023-05-22T12:50:54.404Z,30.29
2023-05-22T12:51:54.383Z,30.26
2023-05-22T12:52:54.425Z,30.21